sensor_id;sensor_type;location;lat;lon;timestamp;temperature;humidity
3912;DHT22;1971;51.778;10.330;2022-09-06T00:00:57;18.20;99.90
3912;DHT22;1971;51.778;10.330;2022-09-06T00:03:34;18.20;99.90
3912;DHT22;1971;51.778;10.330;2022-09-06T00:06:18;18.20;99.90
3912;DHT22;1971;51.778;10.330;2022-09-06T00:08:58;18.20;99.90
3912;DHT22;1971;51.778;10.330;2022-09-06T00:11:40;18.20;99.90
3912;DHT22;1971;51.778;10.330;2022-09-06T00:14:17;18.20;99.90
3912;DHT22;1971;51.778;10.330;2022-09-06T00:16:59;18.20;99.90
3912;DHT22;1971;51.778;10.330;2022-09-06T00:19:36;18.20;99.90
3912;DHT22;1971;51.778;10.330;2022-09-06T00:22:12;18.30;99.90
3912;DHT22;1971;51.778;10.330;2022-09-06T00:24:57;18.20;99.90
3912;DHT22;1971;51.778;10.330;2022-09-06T00:27:33;18.20;99.90
3912;DHT22;1971;51.778;10.330;2022-09-06T00:30:15;18.20;99.90
3912;DHT22;1971;51.778;10.330;2022-09-06T00:32:53;18.20;99.90
3912;DHT22;1971;51.778;10.330;2022-09-06T00:35:35;18.30;99.90
3912;DHT22;1971;51.778;10.330;2022-09-06T00:38:11;18.40;99.90
3912;DHT22;1971;51.778;10.330;2022-09-06T00:40:56;18.40;99.90
3912;DHT22;1971;51.778;10.330;2022-09-06T00:43:32;18.40;99.90
3912;DHT22;1971;51.778;10.330;2022-09-06T00:46:16;18.50;99.90
3912;DHT22;1971;51.778;10.330;2022-09-06T00:48:56;18.50;99.90
3912;DHT22;1971;51.778;10.330;2022-09-06T00:51:34;18.50;99.90
3912;DHT22;1971;51.778;10.330;2022-09-06T00:54:17;18.50;99.90
3912;DHT22;1971;51.778;10.330;2022-09-06T00:56:57;18.50;99.90
3912;DHT22;1971;51.778;10.330;2022-09-06T00:59:41;18.50;99.90
3912;DHT22;1971;51.778;10.330;2022-09-06T01:02:17;18.50;99.90
3912;DHT22;1971;51.778;10.330;2022-09-06T01:05:00;18.50;99.90
3912;DHT22;1971;51.778;10.330;2022-09-06T01:07:53;18.60;99.90
3912;DHT22;1971;51.778;10.330;2022-09-06T01:10:50;18.60;99.90
3912;DHT22;1971;51.778;10.330;2022-09-06T01:13:39;18.60;99.90
3912;DHT22;1971;51.778;10.330;2022-09-06T01:16:24;18.60;99.90
3912;DHT22;1971;51.778;10.330;2022-09-06T01:19:37;18.50;99.90
3912;DHT22;1971;51.778;10.330;2022-09-06T01:22:28;18.50;99.90
3912;DHT22;1971;51.778;10.330;2022-09-06T01:25:31;18.50;99.90
3912;DHT22;1971;51.778;10.330;2022-09-06T01:28:29;18.40;99.90
3912;DHT22;1971;51.778;10.330;2022-09-06T01:31:17;18.30;99.90
3912;DHT22;1971;51.778;10.330;2022-09-06T01:34:13;18.30;99.90
3912;DHT22;1971;51.778;10.330;2022-09-06T01:36:55;18.30;99.90
3912;DHT22;1971;51.778;10.330;2022-09-06T01:39:39;18.20;99.90
3912;DHT22;1971;51.778;10.330;2022-09-06T01:42:18;18.20;99.90
3912;DHT22;1971;51.778;10.330;2022-09-06T01:45:05;18.20;99.90
3912;DHT22;1971;51.778;10.330;2022-09-06T01:47:50;18.30;99.90
3912;DHT22;1971;51.778;10.330;2022-09-06T01:50:44;18.30;99.90
3912;DHT22;1971;51.778;10.330;2022-09-06T01:53:32;18.20;99.90
3912;DHT22;1971;51.778;10.330;2022-09-06T01:56:18;18.20;99.90
3912;DHT22;1971;51.778;10.330;2022-09-06T01:59:27;18.30;99.90
3912;DHT22;1971;51.778;10.330;2022-09-06T02:02:12;18.40;99.90
3912;DHT22;1971;51.778;10.330;2022-09-06T02:04:54;18.30;99.90
3912;DHT22;1971;51.778;10.330;2022-09-06T02:07:34;18.30;99.90
3912;DHT22;1971;51.778;10.330;2022-09-06T02:10:21;18.30;99.90
3912;DHT22;1971;51.778;10.330;2022-09-06T02:12:59;18.20;99.90
3912;DHT22;1971;51.778;10.330;2022-09-06T02:15:45;18.20;99.90
3912;DHT22;1971;51.778;10.330;2022-09-06T02:18:27;18.20;99.90
3912;DHT22;1971;51.778;10.330;2022-09-06T02:21:13;18.30;99.90
3912;DHT22;1971;51.778;10.330;2022-09-06T02:23:52;18.30;99.90
3912;DHT22;1971;51.778;10.330;2022-09-06T02:26:31;18.30;99.90
3912;DHT22;1971;51.778;10.330;2022-09-06T02:29:15;18.40;99.90
3912;DHT22;1971;51.778;10.330;2022-09-06T02:31:55;18.30;99.90
3912;DHT22;1971;51.778;10.330;2022-09-06T02:34:42;18.30;99.90
3912;DHT22;1971;51.778;10.330;2022-09-06T02:37:18;18.40;99.90
3912;DHT22;1971;51.778;10.330;2022-09-06T02:40:00;18.40;99.90
3912;DHT22;1971;51.778;10.330;2022-09-06T02:42:38;18.30;99.90
3912;DHT22;1971;51.778;10.330;2022-09-06T02:45:20;18.40;99.90
3912;DHT22;1971;51.778;10.330;2022-09-06T02:47:56;18.30;99.90
3912;DHT22;1971;51.778;10.330;2022-09-06T02:50:41;18.40;99.90
3912;DHT22;1971;51.778;10.330;2022-09-06T02:53:17;18.40;99.90
3912;DHT22;1971;51.778;10.330;2022-09-06T02:56:01;18.40;99.90
3912;DHT22;1971;51.778;10.330;2022-09-06T02:58:37;18.40;99.90
3912;DHT22;1971;51.778;10.330;2022-09-06T03:01:19;18.40;99.90
3912;DHT22;1971;51.778;10.330;2022-09-06T03:03:55;18.40;99.90
3912;DHT22;1971;51.778;10.330;2022-09-06T03:06:34;18.50;99.90
3912;DHT22;1971;51.778;10.330;2022-09-06T03:09:16;18.50;99.90
3912;DHT22;1971;51.778;10.330;2022-09-06T03:11:52;18.50;99.90
3912;DHT22;1971;51.778;10.330;2022-09-06T03:14:34;18.50;99.90
3912;DHT22;1971;51.778;10.330;2022-09-06T03:17:14;18.50;99.90
3912;DHT22;1971;51.778;10.330;2022-09-06T03:19:56;18.30;99.90
3912;DHT22;1971;51.778;10.330;2022-09-06T03:22:35;18.30;99.90
3912;DHT22;1971;51.778;10.330;2022-09-06T03:25:17;18.40;99.90
3912;DHT22;1971;51.778;10.330;2022-09-06T03:27:54;18.30;99.90
3912;DHT22;1971;51.778;10.330;2022-09-06T03:30:36;18.30;99.90
3912;DHT22;1971;51.778;10.330;2022-09-06T03:33:12;18.40;99.90
3912;DHT22;1971;51.778;10.330;2022-09-06T03:35:56;18.30;99.90
3912;DHT22;1971;51.778;10.330;2022-09-06T03:38:35;18.30;99.90
3912;DHT22;1971;51.778;10.330;2022-09-06T03:41:17;18.20;99.90
3912;DHT22;1971;51.778;10.330;2022-09-06T03:43:53;18.20;99.90
3912;DHT22;1971;51.778;10.330;2022-09-06T03:46:35;18.10;99.90
3912;DHT22;1971;51.778;10.330;2022-09-06T03:49:12;18.10;99.90
3912;DHT22;1971;51.778;10.330;2022-09-06T03:51:48;18.00;99.90
3912;DHT22;1971;51.778;10.330;2022-09-06T03:54:33;18.00;99.90
3912;DHT22;1971;51.778;10.330;2022-09-06T03:57:09;18.00;99.90
3912;DHT22;1971;51.778;10.330;2022-09-06T03:59:51;18.00;99.90
3912;DHT22;1971;51.778;10.330;2022-09-06T04:02:27;17.90;99.90
3912;DHT22;1971;51.778;10.330;2022-09-06T04:05:09;18.00;99.90
3912;DHT22;1971;51.778;10.330;2022-09-06T04:07:46;18.10;99.90
3912;DHT22;1971;51.778;10.330;2022-09-06T04:10:31;18.00;99.90
3912;DHT22;1971;51.778;10.330;2022-09-06T04:13:07;18.00;99.90
3912;DHT22;1971;51.778;10.330;2022-09-06T04:15:49;18.00;99.90
3912;DHT22;1971;51.778;10.330;2022-09-06T04:18:26;18.00;99.90
3912;DHT22;1971;51.778;10.330;2022-09-06T04:21:08;18.00;99.90
3912;DHT22;1971;51.778;10.330;2022-09-06T04:23:44;18.00;99.90
3912;DHT22;1971;51.778;10.330;2022-09-06T04:26:29;17.90;99.90
3912;DHT22;1971;51.778;10.330;2022-09-06T04:29:05;17.90;99.90
3912;DHT22;1971;51.778;10.330;2022-09-06T04:31:41;17.90;99.90
3912;DHT22;1971;51.778;10.330;2022-09-06T04:34:23;17.90;99.90
3912;DHT22;1971;51.778;10.330;2022-09-06T04:36:59;18.00;99.90
3912;DHT22;1971;51.778;10.330;2022-09-06T04:39:44;18.00;99.90
3912;DHT22;1971;51.778;10.330;2022-09-06T04:42:23;18.00;99.90
3912;DHT22;1971;51.778;10.330;2022-09-06T04:45:06;18.10;99.90
3912;DHT22;1971;51.778;10.330;2022-09-06T04:47:43;18.00;99.90
3912;DHT22;1971;51.778;10.330;2022-09-06T04:50:25;18.00;99.90
3912;DHT22;1971;51.778;10.330;2022-09-06T04:53:01;18.00;99.90
3912;DHT22;1971;51.778;10.330;2022-09-06T04:55:43;18.00;99.90
3912;DHT22;1971;51.778;10.330;2022-09-06T04:58:22;18.10;99.90
3912;DHT22;1971;51.778;10.330;2022-09-06T05:01:04;18.10;99.90
3912;DHT22;1971;51.778;10.330;2022-09-06T05:03:42;18.10;99.90
3912;DHT22;1971;51.778;10.330;2022-09-06T05:06:24;18.10;99.90
3912;DHT22;1971;51.778;10.330;2022-09-06T05:09:00;18.10;99.90
3912;DHT22;1971;51.778;10.330;2022-09-06T05:11:42;18.10;99.90
3912;DHT22;1971;51.778;10.330;2022-09-06T05:14:21;18.10;99.90
3912;DHT22;1971;51.778;10.330;2022-09-06T05:17:03;18.10;99.90
3912;DHT22;1971;51.778;10.330;2022-09-06T05:19:39;18.10;99.90
3912;DHT22;1971;51.778;10.330;2022-09-06T05:22:15;18.20;99.90
3912;DHT22;1971;51.778;10.330;2022-09-06T05:24:57;18.20;99.90
3912;DHT22;1971;51.778;10.330;2022-09-06T05:27:33;18.20;99.90
3912;DHT22;1971;51.778;10.330;2022-09-06T05:30:18;18.20;99.90
3912;DHT22;1971;51.778;10.330;2022-09-06T05:32:55;18.30;99.90
3912;DHT22;1971;51.778;10.330;2022-09-06T05:35:37;18.30;99.90
3912;DHT22;1971;51.778;10.330;2022-09-06T05:38:14;18.30;99.90
3912;DHT22;1971;51.778;10.330;2022-09-06T05:40:56;18.40;99.90
3912;DHT22;1971;51.778;10.330;2022-09-06T05:43:32;18.40;99.90
3912;DHT22;1971;51.778;10.330;2022-09-06T05:46:19;18.40;99.90
3912;DHT22;1971;51.778;10.330;2022-09-06T05:48:56;18.50;99.90
3912;DHT22;1971;51.778;10.330;2022-09-06T05:51:42;18.50;99.90
3912;DHT22;1971;51.778;10.330;2022-09-06T05:54:18;18.50;99.90
3912;DHT22;1971;51.778;10.330;2022-09-06T05:57:00;18.50;99.90
3912;DHT22;1971;51.778;10.330;2022-09-06T05:59:37;18.60;99.90
3912;DHT22;1971;51.778;10.330;2022-09-06T06:02:16;18.60;99.90
3912;DHT22;1971;51.778;10.330;2022-09-06T06:04:58;18.60;99.90
3912;DHT22;1971;51.778;10.330;2022-09-06T06:07:36;18.60;99.90
3912;DHT22;1971;51.778;10.330;2022-09-06T06:10:19;18.60;99.90
3912;DHT22;1971;51.778;10.330;2022-09-06T06:12:56;18.60;99.90
3912;DHT22;1971;51.778;10.330;2022-09-06T06:15:41;18.70;99.90
3912;DHT22;1971;51.778;10.330;2022-09-06T06:18:21;18.80;99.90
3912;DHT22;1971;51.778;10.330;2022-09-06T06:21:08;18.80;99.90
3912;DHT22;1971;51.778;10.330;2022-09-06T06:23:45;18.90;99.90
3912;DHT22;1971;51.778;10.330;2022-09-06T06:26:29;19.00;99.90
3912;DHT22;1971;51.778;10.330;2022-09-06T06:29:06;19.10;99.90
3912;DHT22;1971;51.778;10.330;2022-09-06T06:31:48;19.30;99.90
3912;DHT22;1971;51.778;10.330;2022-09-06T06:34:27;19.40;99.90
3912;DHT22;1971;51.778;10.330;2022-09-06T06:37:03;19.50;99.90
3912;DHT22;1971;51.778;10.330;2022-09-06T06:39:45;19.70;99.90
3912;DHT22;1971;51.778;10.330;2022-09-06T06:42:26;19.90;99.90
3912;DHT22;1971;51.778;10.330;2022-09-06T06:45:09;19.80;99.90
3912;DHT22;1971;51.778;10.330;2022-09-06T06:47:48;19.80;99.90
3912;DHT22;1971;51.778;10.330;2022-09-06T06:50:33;19.70;99.90
3912;DHT22;1971;51.778;10.330;2022-09-06T06:53:09;19.70;99.90
3912;DHT22;1971;51.778;10.330;2022-09-06T06:55:51;19.60;99.90
3912;DHT22;1971;51.778;10.330;2022-09-06T06:58:29;19.60;99.90
3912;DHT22;1971;51.778;10.330;2022-09-06T07:01:11;19.60;99.90
3912;DHT22;1971;51.778;10.330;2022-09-06T07:03:49;19.60;99.90
3912;DHT22;1971;51.778;10.330;2022-09-06T07:06:45;19.50;99.90
3912;DHT22;1971;51.778;10.330;2022-09-06T07:09:35;19.50;99.90
3912;DHT22;1971;51.778;10.330;2022-09-06T07:12:25;19.60;99.90
3912;DHT22;1971;51.778;10.330;2022-09-06T07:15:08;19.60;99.90
3912;DHT22;1971;51.778;10.330;2022-09-06T07:17:44;19.50;99.90
3912;DHT22;1971;51.778;10.330;2022-09-06T07:20:26;19.50;99.90
3912;DHT22;1971;51.778;10.330;2022-09-06T07:23:05;19.40;99.90
3912;DHT22;1971;51.778;10.330;2022-09-06T07:25:47;19.30;99.90
3912;DHT22;1971;51.778;10.330;2022-09-06T07:28:23;19.30;99.90
3912;DHT22;1971;51.778;10.330;2022-09-06T07:31:05;19.40;99.90
3912;DHT22;1971;51.778;10.330;2022-09-06T07:33:55;19.50;99.90
3912;DHT22;1971;51.778;10.330;2022-09-06T07:36:37;19.60;99.90
3912;DHT22;1971;51.778;10.330;2022-09-06T07:39:16;19.70;99.90
3912;DHT22;1971;51.778;10.330;2022-09-06T07:41:55;19.80;99.90
3912;DHT22;1971;51.778;10.330;2022-09-06T07:44:37;20.00;99.90
3912;DHT22;1971;51.778;10.330;2022-09-06T07:47:13;20.10;99.90
3912;DHT22;1971;51.778;10.330;2022-09-06T07:49:55;20.20;99.90
3912;DHT22;1971;51.778;10.330;2022-09-06T07:52:46;20.20;99.90
3912;DHT22;1971;51.778;10.330;2022-09-06T07:55:31;20.20;99.90
3912;DHT22;1971;51.778;10.330;2022-09-06T07:58:07;20.30;99.90
3912;DHT22;1971;51.778;10.330;2022-09-06T08:00:49;20.50;99.90
3912;DHT22;1971;51.778;10.330;2022-09-06T08:03:26;20.90;99.90
3912;DHT22;1971;51.778;10.330;2022-09-06T08:06:08;20.90;99.90
3912;DHT22;1971;51.778;10.330;2022-09-06T08:08:44;21.00;99.90
3912;DHT22;1971;51.778;10.330;2022-09-06T08:11:31;20.90;99.90
3912;DHT22;1971;51.778;10.330;2022-09-06T08:14:08;20.80;99.90
3912;DHT22;1971;51.778;10.330;2022-09-06T08:16:44;20.90;99.90
3912;DHT22;1971;51.778;10.330;2022-09-06T08:19:27;20.90;99.90
3912;DHT22;1971;51.778;10.330;2022-09-06T08:22:03;21.10;99.90
3912;DHT22;1971;51.778;10.330;2022-09-06T08:24:45;21.40;99.90
3912;DHT22;1971;51.778;10.330;2022-09-06T08:27:24;21.60;99.90
3912;DHT22;1971;51.778;10.330;2022-09-06T08:30:08;22.00;99.90
3912;DHT22;1971;51.778;10.330;2022-09-06T08:32:47;22.50;99.90
3912;DHT22;1971;51.778;10.330;2022-09-06T08:35:29;22.80;99.90
3912;DHT22;1971;51.778;10.330;2022-09-06T08:38:05;22.70;99.90
3912;DHT22;1971;51.778;10.330;2022-09-06T08:40:48;22.90;99.90
3912;DHT22;1971;51.778;10.330;2022-09-06T08:43:27;22.80;99.90
3912;DHT22;1971;51.778;10.330;2022-09-06T08:46:10;22.60;99.90
3912;DHT22;1971;51.778;10.330;2022-09-06T08:48:46;22.90;99.90
3912;DHT22;1971;51.778;10.330;2022-09-06T08:54:32;23.10;99.90
3912;DHT22;1971;51.778;10.330;2022-09-06T08:57:16;23.40;99.90
3912;DHT22;1971;51.778;10.330;2022-09-06T09:00:04;23.50;99.90
3912;DHT22;1971;51.778;10.330;2022-09-06T09:02:45;23.60;99.90
3912;DHT22;1971;51.778;10.330;2022-09-06T09:05:33;23.80;99.90
3912;DHT22;1971;51.778;10.330;2022-09-06T09:08:19;23.70;99.90
3912;DHT22;1971;51.778;10.330;2022-09-06T09:11:04;23.80;99.90
3912;DHT22;1971;51.778;10.330;2022-09-06T09:13:50;23.80;99.90
3912;DHT22;1971;51.778;10.330;2022-09-06T09:16:31;23.70;99.90
3912;DHT22;1971;51.778;10.330;2022-09-06T09:19:14;23.70;99.90
3912;DHT22;1971;51.778;10.330;2022-09-06T09:21:50;23.30;99.90
3912;DHT22;1971;51.778;10.330;2022-09-06T09:24:33;23.20;99.90
3912;DHT22;1971;51.778;10.330;2022-09-06T09:27:17;22.80;99.90
3912;DHT22;1971;51.778;10.330;2022-09-06T09:29:59;22.70;99.90
3912;DHT22;1971;51.778;10.330;2022-09-06T09:32:52;22.60;99.90
3912;DHT22;1971;51.778;10.330;2022-09-06T09:35:39;22.60;99.90
3912;DHT22;1971;51.778;10.330;2022-09-06T09:38:19;22.40;99.90
3912;DHT22;1971;51.778;10.330;2022-09-06T09:41:04;22.30;99.90
3912;DHT22;1971;51.778;10.330;2022-09-06T09:43:54;22.20;99.90
3912;DHT22;1971;51.778;10.330;2022-09-06T09:46:37;22.10;99.90
3912;DHT22;1971;51.778;10.330;2022-09-06T09:49:29;21.80;99.90
3912;DHT22;1971;51.778;10.330;2022-09-06T09:52:09;21.70;99.90
3912;DHT22;1971;51.778;10.330;2022-09-06T09:54:51;21.50;99.90
3912;DHT22;1971;51.778;10.330;2022-09-06T09:57:30;21.20;99.90
3912;DHT22;1971;51.778;10.330;2022-09-06T10:00:13;21.00;99.90
3912;DHT22;1971;51.778;10.330;2022-09-06T10:02:49;21.10;99.90
3912;DHT22;1971;51.778;10.330;2022-09-06T10:05:34;21.20;99.90
3912;DHT22;1971;51.778;10.330;2022-09-06T10:08:12;21.60;99.90
3912;DHT22;1971;51.778;10.330;2022-09-06T10:10:54;21.70;99.90
3912;DHT22;1971;51.778;10.330;2022-09-06T10:13:31;22.00;99.90
3912;DHT22;1971;51.778;10.330;2022-09-06T10:16:13;22.60;99.90
3912;DHT22;1971;51.778;10.330;2022-09-06T10:18:49;23.10;99.90
3912;DHT22;1971;51.778;10.330;2022-09-06T10:21:34;23.20;99.90
3912;DHT22;1971;51.778;10.330;2022-09-06T10:24:16;23.80;99.90
3912;DHT22;1971;51.778;10.330;2022-09-06T10:27:05;24.00;99.90
3912;DHT22;1971;51.778;10.330;2022-09-06T10:29:50;24.10;99.90
3912;DHT22;1971;51.778;10.330;2022-09-06T10:32:39;24.10;99.90
3912;DHT22;1971;51.778;10.330;2022-09-06T10:35:21;24.00;99.90
3912;DHT22;1971;51.778;10.330;2022-09-06T10:38:13;24.10;99.90
3912;DHT22;1971;51.778;10.330;2022-09-06T10:40:57;24.30;99.90
3912;DHT22;1971;51.778;10.330;2022-09-06T10:43:41;24.10;99.90
3912;DHT22;1971;51.778;10.330;2022-09-06T10:46:25;24.10;99.90
3912;DHT22;1971;51.778;10.330;2022-09-06T10:49:02;23.90;99.90
3912;DHT22;1971;51.778;10.330;2022-09-06T10:51:46;24.10;99.90
3912;DHT22;1971;51.778;10.330;2022-09-06T10:54:29;23.90;99.90
3912;DHT22;1971;51.778;10.330;2022-09-06T10:57:12;24.10;99.90
3912;DHT22;1971;51.778;10.330;2022-09-06T11:00:06;24.20;99.90
3912;DHT22;1971;51.778;10.330;2022-09-06T11:02:53;24.80;99.90
3912;DHT22;1971;51.778;10.330;2022-09-06T11:05:48;25.10;99.90
3912;DHT22;1971;51.778;10.330;2022-09-06T11:08:29;24.80;99.90
3912;DHT22;1971;51.778;10.330;2022-09-06T11:11:29;25.20;99.90
3912;DHT22;1971;51.778;10.330;2022-09-06T11:14:14;25.60;99.90
3912;DHT22;1971;51.778;10.330;2022-09-06T11:16:53;25.90;99.90
3912;DHT22;1971;51.778;10.330;2022-09-06T11:19:42;26.00;99.90
3912;DHT22;1971;51.778;10.330;2022-09-06T11:22:36;26.10;99.90
3912;DHT22;1971;51.778;10.330;2022-09-06T11:25:36;25.90;99.90
3912;DHT22;1971;51.778;10.330;2022-09-06T11:28:24;25.90;99.90
3912;DHT22;1971;51.778;10.330;2022-09-06T11:31:03;26.00;99.90
3912;DHT22;1971;51.778;10.330;2022-09-06T11:33:41;25.90;99.90
3912;DHT22;1971;51.778;10.330;2022-09-06T11:36:32;25.70;99.90
3912;DHT22;1971;51.778;10.330;2022-09-06T11:39:10;25.40;99.90
3912;DHT22;1971;51.778;10.330;2022-09-06T11:41:47;25.30;99.90
3912;DHT22;1971;51.778;10.330;2022-09-06T11:44:53;25.20;99.90
3912;DHT22;1971;51.778;10.330;2022-09-06T11:47:50;25.30;99.90
3912;DHT22;1971;51.778;10.330;2022-09-06T11:50:57;25.40;99.90
3912;DHT22;1971;51.778;10.330;2022-09-06T11:54:05;25.70;99.90
3912;DHT22;1971;51.778;10.330;2022-09-06T11:56:50;25.50;99.90
3912;DHT22;1971;51.778;10.330;2022-09-06T11:59:42;25.80;99.90
3912;DHT22;1971;51.778;10.330;2022-09-06T12:02:39;26.10;99.90
3912;DHT22;1971;51.778;10.330;2022-09-06T12:05:22;25.90;99.90
3912;DHT22;1971;51.778;10.330;2022-09-06T12:08:23;26.10;99.90
3912;DHT22;1971;51.778;10.330;2022-09-06T12:14:00;26.10;99.90
3912;DHT22;1971;51.778;10.330;2022-09-06T12:19:54;26.10;99.90
3912;DHT22;1971;51.778;10.330;2022-09-06T12:23:00;25.90;99.90
3912;DHT22;1971;51.778;10.330;2022-09-06T12:25:55;25.80;99.90
3912;DHT22;1971;51.778;10.330;2022-09-06T12:28:34;25.90;99.90
3912;DHT22;1971;51.778;10.330;2022-09-06T12:31:26;26.30;99.90
3912;DHT22;1971;51.778;10.330;2022-09-06T12:34:14;27.00;99.90
3912;DHT22;1971;51.778;10.330;2022-09-06T12:37:03;27.30;99.90
3912;DHT22;1971;51.778;10.330;2022-09-06T12:39:55;27.40;99.90
3912;DHT22;1971;51.778;10.330;2022-09-06T12:45:14;26.40;99.90
3912;DHT22;1971;51.778;10.330;2022-09-06T12:48:02;25.90;99.90
3912;DHT22;1971;51.778;10.330;2022-09-06T12:50:39;25.60;99.90
3912;DHT22;1971;51.778;10.330;2022-09-06T12:53:21;25.40;99.90
3912;DHT22;1971;51.778;10.330;2022-09-06T12:56:04;25.30;99.90
3912;DHT22;1971;51.778;10.330;2022-09-06T12:58:41;25.20;99.90
3912;DHT22;1971;51.778;10.330;2022-09-06T13:01:25;25.10;99.90
3912;DHT22;1971;51.778;10.330;2022-09-06T13:04:09;25.10;99.90
3912;DHT22;1971;51.778;10.330;2022-09-06T13:06:54;24.90;99.90
3912;DHT22;1971;51.778;10.330;2022-09-06T13:09:36;24.40;99.90
3912;DHT22;1971;51.778;10.330;2022-09-06T13:12:22;24.30;99.90
3912;DHT22;1971;51.778;10.330;2022-09-06T13:15:11;24.20;99.90
3912;DHT22;1971;51.778;10.330;2022-09-06T13:17:49;24.70;99.90
3912;DHT22;1971;51.778;10.330;2022-09-06T13:20:31;25.00;99.90
3912;DHT22;1971;51.778;10.330;2022-09-06T13:23:09;24.90;99.90
3912;DHT22;1971;51.778;10.330;2022-09-06T13:25:54;24.80;99.90
3912;DHT22;1971;51.778;10.330;2022-09-06T13:28:32;25.00;99.90
3912;DHT22;1971;51.778;10.330;2022-09-06T13:31:20;25.20;99.90
3912;DHT22;1971;51.778;10.330;2022-09-06T13:33:58;25.40;99.90
3912;DHT22;1971;51.778;10.330;2022-09-06T13:36:47;25.00;99.90
3912;DHT22;1971;51.778;10.330;2022-09-06T13:39:29;24.80;99.90
3912;DHT22;1971;51.778;10.330;2022-09-06T13:42:26;24.60;99.90
3912;DHT22;1971;51.778;10.330;2022-09-06T13:45:20;24.20;99.90
3912;DHT22;1971;51.778;10.330;2022-09-06T13:47:59;24.10;99.90
3912;DHT22;1971;51.778;10.330;2022-09-06T13:50:41;23.90;99.90
3912;DHT22;1971;51.778;10.330;2022-09-06T13:53:18;23.60;99.90
3912;DHT22;1971;51.778;10.330;2022-09-06T13:56:01;23.60;99.90
3912;DHT22;1971;51.778;10.330;2022-09-06T13:58:43;23.80;99.90
3912;DHT22;1971;51.778;10.330;2022-09-06T14:01:26;23.90;99.90
3912;DHT22;1971;51.778;10.330;2022-09-06T14:04:02;24.00;99.90
3912;DHT22;1971;51.778;10.330;2022-09-06T14:06:45;23.80;99.90
3912;DHT22;1971;51.778;10.330;2022-09-06T14:09:22;23.70;99.90
3912;DHT22;1971;51.778;10.330;2022-09-06T14:12:04;23.60;99.90
3912;DHT22;1971;51.778;10.330;2022-09-06T14:14:44;23.90;99.90
3912;DHT22;1971;51.778;10.330;2022-09-06T14:17:27;24.40;99.90
3912;DHT22;1971;51.778;10.330;2022-09-06T14:20:06;24.80;99.90
3912;DHT22;1971;51.778;10.330;2022-09-06T14:22:43;25.00;99.90
3912;DHT22;1971;51.778;10.330;2022-09-06T14:25:25;25.10;99.90
3912;DHT22;1971;51.778;10.330;2022-09-06T14:28:01;25.40;99.90
3912;DHT22;1971;51.778;10.330;2022-09-06T14:30:45;25.20;99.90
3912;DHT22;1971;51.778;10.330;2022-09-06T14:33:22;25.40;99.90
3912;DHT22;1971;51.778;10.330;2022-09-06T14:36:06;25.60;99.90
3912;DHT22;1971;51.778;10.330;2022-09-06T14:38:44;25.50;99.90
3912;DHT22;1971;51.778;10.330;2022-09-06T14:41:26;25.50;99.90
3912;DHT22;1971;51.778;10.330;2022-09-06T14:44:03;25.60;99.90
3912;DHT22;1971;51.778;10.330;2022-09-06T14:46:47;25.80;99.90
3912;DHT22;1971;51.778;10.330;2022-09-06T14:49:26;26.00;99.90
3912;DHT22;1971;51.778;10.330;2022-09-06T14:52:08;26.10;99.90
3912;DHT22;1971;51.778;10.330;2022-09-06T14:54:44;26.00;99.90
3912;DHT22;1971;51.778;10.330;2022-09-06T14:57:26;25.90;99.90
3912;DHT22;1971;51.778;10.330;2022-09-06T15:00:04;26.20;99.90
3912;DHT22;1971;51.778;10.330;2022-09-06T15:02:45;26.30;99.90
3912;DHT22;1971;51.778;10.330;2022-09-06T15:05:28;26.40;99.90
3912;DHT22;1971;51.778;10.330;2022-09-06T15:08:04;26.30;99.90
3912;DHT22;1971;51.778;10.330;2022-09-06T15:10:51;25.70;99.90
3912;DHT22;1971;51.778;10.330;2022-09-06T15:13:28;25.80;99.90
3912;DHT22;1971;51.778;10.330;2022-09-06T15:16:10;25.80;99.90
3912;DHT22;1971;51.778;10.330;2022-09-06T15:18:49;25.20;99.90
3912;DHT22;1971;51.778;10.330;2022-09-06T15:21:32;25.40;99.90
3912;DHT22;1971;51.778;10.330;2022-09-06T15:24:08;25.80;99.90
3912;DHT22;1971;51.778;10.330;2022-09-06T15:26:50;26.00;99.90
3912;DHT22;1971;51.778;10.330;2022-09-06T15:29:33;26.30;99.90
3912;DHT22;1971;51.778;10.330;2022-09-06T15:32:09;26.20;99.90
3912;DHT22;1971;51.778;10.330;2022-09-06T15:34:53;26.60;99.90
3912;DHT22;1971;51.778;10.330;2022-09-06T15:37:36;26.60;99.90
3912;DHT22;1971;51.778;10.330;2022-09-06T15:40:18;26.70;99.90
3912;DHT22;1971;51.778;10.330;2022-09-06T15:42:59;26.50;99.90
3912;DHT22;1971;51.778;10.330;2022-09-06T15:45:45;26.60;99.90
3912;DHT22;1971;51.778;10.330;2022-09-06T15:48:22;26.90;99.90
3912;DHT22;1971;51.778;10.330;2022-09-06T15:51:06;26.90;99.90
3912;DHT22;1971;51.778;10.330;2022-09-06T15:53:43;26.30;99.90
3912;DHT22;1971;51.778;10.330;2022-09-06T15:56:26;26.10;99.90
3912;DHT22;1971;51.778;10.330;2022-09-06T15:59:02;26.20;99.90
3912;DHT22;1971;51.778;10.330;2022-09-06T16:01:45;26.40;99.90
3912;DHT22;1971;51.778;10.330;2022-09-06T16:04:21;26.70;99.90
3912;DHT22;1971;51.778;10.330;2022-09-06T16:07:05;26.80;99.90
3912;DHT22;1971;51.778;10.330;2022-09-06T16:09:42;26.90;99.90
3912;DHT22;1971;51.778;10.330;2022-09-06T16:12:18;27.10;99.90
3912;DHT22;1971;51.778;10.330;2022-09-06T16:15:00;26.80;99.90
3912;DHT22;1971;51.778;10.330;2022-09-06T16:17:36;26.60;99.90
3912;DHT22;1971;51.778;10.330;2022-09-06T16:20:18;26.50;99.90
3912;DHT22;1971;51.778;10.330;2022-09-06T16:22:57;26.40;99.90
3912;DHT22;1971;51.778;10.330;2022-09-06T16:25:40;26.30;99.90
3912;DHT22;1971;51.778;10.330;2022-09-06T16:28:16;26.60;99.90
3912;DHT22;1971;51.778;10.330;2022-09-06T16:31:00;26.90;99.90
3912;DHT22;1971;51.778;10.330;2022-09-06T16:33:38;27.00;99.90
3912;DHT22;1971;51.778;10.330;2022-09-06T16:36:24;27.10;99.90
3912;DHT22;1971;51.778;10.330;2022-09-06T16:39:04;26.80;99.90
3912;DHT22;1971;51.778;10.330;2022-09-06T16:41:47;26.80;99.90
3912;DHT22;1971;51.778;10.330;2022-09-06T16:44:23;26.80;99.90
3912;DHT22;1971;51.778;10.330;2022-09-06T16:47:05;26.60;99.90
3912;DHT22;1971;51.778;10.330;2022-09-06T16:49:46;26.50;99.90
3912;DHT22;1971;51.778;10.330;2022-09-06T16:52:28;26.10;99.90
3912;DHT22;1971;51.778;10.330;2022-09-06T16:55:07;25.60;99.90
3912;DHT22;1971;51.778;10.330;2022-09-06T16:57:44;25.20;99.90
3912;DHT22;1971;51.778;10.330;2022-09-06T17:00:26;24.80;99.90
3912;DHT22;1971;51.778;10.330;2022-09-06T17:03:02;24.50;99.90
3912;DHT22;1971;51.778;10.330;2022-09-06T17:05:48;24.10;99.90
3912;DHT22;1971;51.778;10.330;2022-09-06T17:08:25;23.90;99.90
3912;DHT22;1971;51.778;10.330;2022-09-06T17:11:11;23.80;99.90
3912;DHT22;1971;51.778;10.330;2022-09-06T17:13:49;23.70;99.90
3912;DHT22;1971;51.778;10.330;2022-09-06T17:16:32;23.50;99.90
3912;DHT22;1971;51.778;10.330;2022-09-06T17:19:21;23.30;99.90
3912;DHT22;1971;51.778;10.330;2022-09-06T17:22:03;23.10;99.90
3912;DHT22;1971;51.778;10.330;2022-09-06T17:24:41;23.00;99.90
3912;DHT22;1971;51.778;10.330;2022-09-06T17:27:25;22.80;99.90
3912;DHT22;1971;51.778;10.330;2022-09-06T17:30:02;22.70;99.90
3912;DHT22;1971;51.778;10.330;2022-09-06T17:32:44;22.70;99.90